sensor_id;sensor_type;location;lat;lon;timestamp;P1;durP1;ratioP1;P2;durP2;ratioP2
69419;SDS011;71621;52.030;113.516;2023-07-31T00:01:43;17.67;;;10.70;;
69419;SDS011;71621;52.030;113.516;2023-07-31T00:04:47;15.20;;;10.00;;
69419;SDS011;71621;52.030;113.516;2023-07-31T00:07:51;18.17;;;10.98;;
69419;SDS011;71621;52.030;113.516;2023-07-31T00:10:56;16.10;;;10.60;;
69419;SDS011;71621;52.030;113.516;2023-07-31T00:14:00;19.67;;;10.73;;
69419;SDS011;71621;52.030;113.516;2023-07-31T00:17:03;17.63;;;10.20;;
69419;SDS011;71621;52.030;113.516;2023-07-31T00:20:07;17.47;;;10.27;;
69419;SDS011;71621;52.030;113.516;2023-07-31T00:23:11;16.50;;;10.48;;
69419;SDS011;71621;52.030;113.516;2023-07-31T00:26:15;17.20;;;10.57;;
69419;SDS011;71621;52.030;113.516;2023-07-31T00:29:19;18.25;;;10.60;;
69419;SDS011;71621;52.030;113.516;2023-07-31T00:32:22;18.10;;;9.93;;
69419;SDS011;71621;52.030;113.516;2023-07-31T00:35:27;17.33;;;11.20;;
69419;SDS011;71621;52.030;113.516;2023-07-31T00:38:30;13.95;;;9.90;;
69419;SDS011;71621;52.030;113.516;2023-07-31T00:41:34;14.40;;;10.43;;
69419;SDS011;71621;52.030;113.516;2023-07-31T00:44:38;13.48;;;10.43;;
69419;SDS011;71621;52.030;113.516;2023-07-31T00:47:41;15.27;;;10.43;;
69419;SDS011;71621;52.030;113.516;2023-07-31T00:50:45;13.77;;;9.93;;
69419;SDS011;71621;52.030;113.516;2023-07-31T00:53:49;15.30;;;10.45;;
69419;SDS011;71621;52.030;113.516;2023-07-31T00:56:55;15.45;;;10.13;;
69419;SDS011;71621;52.030;113.516;2023-07-31T00:59:59;14.77;;;10.98;;
69419;SDS011;71621;52.030;113.516;2023-07-31T01:03:03;15.93;;;9.85;;
69419;SDS011;71621;52.030;113.516;2023-07-31T01:10:08;15.90;;;9.82;;
69419;SDS011;71621;52.030;113.516;2023-07-31T01:13:19;15.35;;;9.60;;
69419;SDS011;71621;52.030;113.516;2023-07-31T01:16:25;17.25;;;10.23;;
69419;SDS011;71621;52.030;113.516;2023-07-31T01:19:29;13.23;;;9.70;;
69419;SDS011;71621;52.030;113.516;2023-07-31T01:29:14;15.35;;;10.60;;
69419;SDS011;71621;52.030;113.516;2023-07-31T01:32:27;13.30;;;10.02;;
69419;SDS011;71621;52.030;113.516;2023-07-31T01:35:33;15.85;;;10.05;;
69419;SDS011;71621;52.030;113.516;2023-07-31T01:38:38;15.97;;;9.70;;
69419;SDS011;71621;52.030;113.516;2023-07-31T01:41:41;14.35;;;9.82;;
69419;SDS011;71621;52.030;113.516;2023-07-31T01:44:44;13.00;;;9.93;;
69419;SDS011;71621;52.030;113.516;2023-07-31T01:47:48;14.93;;;9.93;;
69419;SDS011;71621;52.030;113.516;2023-07-31T01:50:51;14.68;;;9.80;;
69419;SDS011;71621;52.030;113.516;2023-07-31T01:53:55;20.43;;;10.03;;
69419;SDS011;71621;52.030;113.516;2023-07-31T01:56:59;17.88;;;10.48;;
69419;SDS011;71621;52.030;113.516;2023-07-31T02:00:03;16.08;;;9.07;;
69419;SDS011;71621;52.030;113.516;2023-07-31T02:03:12;13.88;;;9.50;;
69419;SDS011;71621;52.030;113.516;2023-07-31T02:06:16;19.75;;;9.90;;
69419;SDS011;71621;52.030;113.516;2023-07-31T02:09:20;15.33;;;10.57;;
69419;SDS011;71621;52.030;113.516;2023-07-31T02:12:23;13.68;;;8.70;;
69419;SDS011;71621;52.030;113.516;2023-07-31T02:15:27;13.43;;;8.90;;
69419;SDS011;71621;52.030;113.516;2023-07-31T02:18:30;13.88;;;9.55;;
69419;SDS011;71621;52.030;113.516;2023-07-31T02:21:34;14.48;;;8.52;;
69419;SDS011;71621;52.030;113.516;2023-07-31T02:24:37;13.97;;;8.73;;
69419;SDS011;71621;52.030;113.516;2023-07-31T02:27:41;14.88;;;8.48;;
69419;SDS011;71621;52.030;113.516;2023-07-31T02:30:45;18.92;;;11.73;;
69419;SDS011;71621;52.030;113.516;2023-07-31T02:33:51;16.55;;;10.50;;
69419;SDS011;71621;52.030;113.516;2023-07-31T02:36:55;15.05;;;8.63;;
69419;SDS011;71621;52.030;113.516;2023-07-31T02:39:59;13.00;;;7.47;;
69419;SDS011;71621;52.030;113.516;2023-07-31T02:43:03;14.45;;;7.80;;
69419;SDS011;71621;52.030;113.516;2023-07-31T02:46:07;14.32;;;8.45;;
69419;SDS011;71621;52.030;113.516;2023-07-31T02:49:10;14.00;;;10.15;;
69419;SDS011;71621;52.030;113.516;2023-07-31T02:52:14;12.75;;;8.10;;
69419;SDS011;71621;52.030;113.516;2023-07-31T02:55:17;9.73;;;6.70;;
69419;SDS011;71621;52.030;113.516;2023-07-31T02:58:21;12.48;;;8.52;;
69419;SDS011;71621;52.030;113.516;2023-07-31T03:01:24;18.23;;;8.77;;
69419;SDS011;71621;52.030;113.516;2023-07-31T03:04:28;12.88;;;8.82;;
69419;SDS011;71621;52.030;113.516;2023-07-31T03:07:31;9.75;;;7.28;;
69419;SDS011;71621;52.030;113.516;2023-07-31T03:10:35;11.37;;;8.00;;
69419;SDS011;71621;52.030;113.516;2023-07-31T03:13:39;16.23;;;9.90;;
69419;SDS011;71621;52.030;113.516;2023-07-31T03:16:42;13.23;;;8.00;;
69419;SDS011;71621;52.030;113.516;2023-07-31T03:19:46;12.30;;;8.15;;
69419;SDS011;71621;52.030;113.516;2023-07-31T03:22:50;13.25;;;8.68;;
69419;SDS011;71621;52.030;113.516;2023-07-31T03:26:00;13.00;;;8.67;;
69419;SDS011;71621;52.030;113.516;2023-07-31T03:29:08;16.05;;;8.32;;
69419;SDS011;71621;52.030;113.516;2023-07-31T03:32:12;14.13;;;7.82;;
69419;SDS011;71621;52.030;113.516;2023-07-31T03:35:15;14.30;;;7.85;;
69419;SDS011;71621;52.030;113.516;2023-07-31T03:38:19;17.55;;;8.57;;
69419;SDS011;71621;52.030;113.516;2023-07-31T03:41:22;13.33;;;8.07;;
69419;SDS011;71621;52.030;113.516;2023-07-31T03:44:26;12.55;;;7.82;;
69419;SDS011;71621;52.030;113.516;2023-07-31T03:47:29;13.68;;;8.68;;
69419;SDS011;71621;52.030;113.516;2023-07-31T03:50:33;11.90;;;7.72;;
69419;SDS011;71621;52.030;113.516;2023-07-31T03:53:36;14.02;;;8.20;;
69419;SDS011;71621;52.030;113.516;2023-07-31T03:56:40;10.63;;;7.43;;
69419;SDS011;71621;52.030;113.516;2023-07-31T03:59:44;15.10;;;7.32;;
69419;SDS011;71621;52.030;113.516;2023-07-31T04:02:47;11.50;;;7.88;;
69419;SDS011;71621;52.030;113.516;2023-07-31T04:05:51;12.57;;;8.05;;
69419;SDS011;71621;52.030;113.516;2023-07-31T04:08:56;27.80;;;8.18;;
69419;SDS011;71621;52.030;113.516;2023-07-31T04:12:00;11.63;;;7.03;;
69419;SDS011;71621;52.030;113.516;2023-07-31T04:15:03;13.18;;;8.13;;
69419;SDS011;71621;52.030;113.516;2023-07-31T04:18:07;11.18;;;8.00;;
69419;SDS011;71621;52.030;113.516;2023-07-31T04:21:11;11.23;;;7.10;;
69419;SDS011;71621;52.030;113.516;2023-07-31T04:24:14;11.38;;;7.50;;
69419;SDS011;71621;52.030;113.516;2023-07-31T04:27:18;11.73;;;7.67;;
69419;SDS011;71621;52.030;113.516;2023-07-31T04:30:22;11.80;;;7.18;;
69419;SDS011;71621;52.030;113.516;2023-07-31T04:33:25;11.15;;;6.75;;
69419;SDS011;71621;52.030;113.516;2023-07-31T04:36:29;11.88;;;7.20;;
69419;SDS011;71621;52.030;113.516;2023-07-31T04:39:32;13.25;;;7.20;;
69419;SDS011;71621;52.030;113.516;2023-07-31T04:42:36;15.63;;;7.70;;
69419;SDS011;71621;52.030;113.516;2023-07-31T04:45:42;11.45;;;7.18;;
69419;SDS011;71621;52.030;113.516;2023-07-31T04:48:48;12.32;;;7.57;;
69419;SDS011;71621;52.030;113.516;2023-07-31T04:51:51;10.70;;;6.93;;
69419;SDS011;71621;52.030;113.516;2023-07-31T04:54:55;14.88;;;7.60;;
69419;SDS011;71621;52.030;113.516;2023-07-31T04:57:59;12.33;;;6.70;;
69419;SDS011;71621;52.030;113.516;2023-07-31T05:01:02;17.05;;;6.95;;
69419;SDS011;71621;52.030;113.516;2023-07-31T05:04:06;14.60;;;7.47;;
69419;SDS011;71621;52.030;113.516;2023-07-31T05:07:09;14.18;;;6.93;;
69419;SDS011;71621;52.030;113.516;2023-07-31T05:10:13;13.23;;;6.65;;
69419;SDS011;71621;52.030;113.516;2023-07-31T05:13:16;13.20;;;6.53;;
69419;SDS011;71621;52.030;113.516;2023-07-31T05:16:20;14.23;;;6.60;;
69419;SDS011;71621;52.030;113.516;2023-07-31T05:19:23;16.08;;;6.53;;
69419;SDS011;71621;52.030;113.516;2023-07-31T05:22:27;12.95;;;6.70;;
69419;SDS011;71621;52.030;113.516;2023-07-31T05:25:30;11.85;;;5.38;;
69419;SDS011;71621;52.030;113.516;2023-07-31T05:28:34;13.37;;;6.17;;
69419;SDS011;71621;52.030;113.516;2023-07-31T05:31:38;17.70;;;6.00;;
69419;SDS011;71621;52.030;113.516;2023-07-31T05:34:42;10.15;;;5.30;;
69419;SDS011;71621;52.030;113.516;2023-07-31T05:37:45;10.48;;;5.00;;
69419;SDS011;71621;52.030;113.516;2023-07-31T05:40:49;12.45;;;4.63;;
69419;SDS011;71621;52.030;113.516;2023-07-31T05:43:52;9.90;;;5.00;;
69419;SDS011;71621;52.030;113.516;2023-07-31T05:46:56;11.55;;;5.57;;
69419;SDS011;71621;52.030;113.516;2023-07-31T05:50:00;14.55;;;5.25;;
69419;SDS011;71621;52.030;113.516;2023-07-31T05:53:03;11.00;;;5.00;;
69419;SDS011;71621;52.030;113.516;2023-07-31T05:56:07;11.63;;;4.95;;
69419;SDS011;71621;52.030;113.516;2023-07-31T05:59:11;10.17;;;5.10;;
69419;SDS011;71621;52.030;113.516;2023-07-31T06:02:16;12.77;;;4.93;;
69419;SDS011;71621;52.030;113.516;2023-07-31T06:05:19;13.60;;;6.03;;
69419;SDS011;71621;52.030;113.516;2023-07-31T06:08:23;13.00;;;5.60;;
69419;SDS011;71621;52.030;113.516;2023-07-31T06:11:26;8.25;;;4.70;;
69419;SDS011;71621;52.030;113.516;2023-07-31T06:14:30;12.20;;;5.60;;
69419;SDS011;71621;52.030;113.516;2023-07-31T06:17:33;11.15;;;4.97;;
69419;SDS011;71621;52.030;113.516;2023-07-31T06:20:37;11.48;;;5.72;;
69419;SDS011;71621;52.030;113.516;2023-07-31T06:23:43;9.50;;;4.78;;
69419;SDS011;71621;52.030;113.516;2023-07-31T06:26:47;11.57;;;5.28;;
69419;SDS011;71621;52.030;113.516;2023-07-31T06:29:50;12.23;;;5.50;;
69419;SDS011;71621;52.030;113.516;2023-07-31T06:32:54;14.80;;;6.05;;
69419;SDS011;71621;52.030;113.516;2023-07-31T06:35:58;12.48;;;5.40;;
69419;SDS011;71621;52.030;113.516;2023-07-31T06:39:01;12.13;;;6.45;;
69419;SDS011;71621;52.030;113.516;2023-07-31T06:42:05;15.52;;;6.88;;
69419;SDS011;71621;52.030;113.516;2023-07-31T06:45:09;11.83;;;6.03;;
69419;SDS011;71621;52.030;113.516;2023-07-31T06:48:13;12.60;;;5.38;;
69419;SDS011;71621;52.030;113.516;2023-07-31T06:51:17;12.52;;;5.80;;
69419;SDS011;71621;52.030;113.516;2023-07-31T06:54:20;10.07;;;5.75;;
69419;SDS011;71621;52.030;113.516;2023-07-31T06:57:24;11.43;;;5.78;;
69419;SDS011;71621;52.030;113.516;2023-07-31T07:00:27;9.90;;;5.70;;
69419;SDS011;71621;52.030;113.516;2023-07-31T07:03:31;18.50;;;6.20;;
69419;SDS011;71621;52.030;113.516;2023-07-31T07:06:35;9.90;;;5.47;;
69419;SDS011;71621;52.030;113.516;2023-07-31T07:09:39;11.77;;;5.55;;
69419;SDS011;71621;52.030;113.516;2023-07-31T07:12:43;18.50;;;5.90;;
69419;SDS011;71621;52.030;113.516;2023-07-31T07:15:50;14.67;;;5.97;;
69419;SDS011;71621;52.030;113.516;2023-07-31T07:18:54;9.18;;;5.30;;
69419;SDS011;71621;52.030;113.516;2023-07-31T07:22:06;9.85;;;5.25;;
69419;SDS011;71621;52.030;113.516;2023-07-31T07:25:09;9.57;;;5.03;;
69419;SDS011;71621;52.030;113.516;2023-07-31T07:28:13;11.98;;;5.65;;
69419;SDS011;71621;52.030;113.516;2023-07-31T07:31:16;16.60;;;7.63;;
69419;SDS011;71621;52.030;113.516;2023-07-31T07:34:22;13.00;;;5.32;;
69419;SDS011;71621;52.030;113.516;2023-07-31T07:37:27;10.55;;;5.50;;
69419;SDS011;71621;52.030;113.516;2023-07-31T07:40:31;8.70;;;5.05;;
69419;SDS011;71621;52.030;113.516;2023-07-31T07:43:34;11.23;;;5.15;;
69419;SDS011;71621;52.030;113.516;2023-07-31T07:46:38;12.57;;;5.77;;
69419;SDS011;71621;52.030;113.516;2023-07-31T07:49:41;11.90;;;5.05;;
69419;SDS011;71621;52.030;113.516;2023-07-31T07:52:53;12.15;;;5.30;;
69419;SDS011;71621;52.030;113.516;2023-07-31T07:55:56;13.52;;;5.07;;
69419;SDS011;71621;52.030;113.516;2023-07-31T07:59:00;12.35;;;4.95;;
69419;SDS011;71621;52.030;113.516;2023-07-31T08:02:03;10.87;;;5.40;;
69419;SDS011;71621;52.030;113.516;2023-07-31T08:05:07;11.73;;;5.57;;
69419;SDS011;71621;52.030;113.516;2023-07-31T08:08:14;12.68;;;5.75;;
69419;SDS011;71621;52.030;113.516;2023-07-31T08:11:19;9.95;;;5.43;;
69419;SDS011;71621;52.030;113.516;2023-07-31T08:14:22;9.93;;;5.40;;
69419;SDS011;71621;52.030;113.516;2023-07-31T08:17:26;13.60;;;5.13;;
69419;SDS011;71621;52.030;113.516;2023-07-31T08:20:29;10.27;;;5.80;;
69419;SDS011;71621;52.030;113.516;2023-07-31T08:23:33;9.40;;;5.07;;
69419;SDS011;71621;52.030;113.516;2023-07-31T08:26:36;15.40;;;6.00;;
69419;SDS011;71621;52.030;113.516;2023-07-31T08:29:40;14.30;;;7.45;;
69419;SDS011;71621;52.030;113.516;2023-07-31T08:32:44;12.60;;;7.33;;
69419;SDS011;71621;52.030;113.516;2023-07-31T08:35:48;13.65;;;6.13;;
69419;SDS011;71621;52.030;113.516;2023-07-31T08:38:51;12.68;;;6.05;;
69419;SDS011;71621;52.030;113.516;2023-07-31T08:41:58;15.38;;;5.40;;
69419;SDS011;71621;52.030;113.516;2023-07-31T08:45:05;16.15;;;7.15;;
69419;SDS011;71621;52.030;113.516;2023-07-31T08:48:09;14.13;;;6.53;;
69419;SDS011;71621;52.030;113.516;2023-07-31T08:51:15;11.20;;;6.05;;
69419;SDS011;71621;52.030;113.516;2023-07-31T08:54:19;13.13;;;6.50;;
69419;SDS011;71621;52.030;113.516;2023-07-31T08:57:24;16.33;;;6.22;;
69419;SDS011;71621;52.030;113.516;2023-07-31T09:00:27;15.25;;;6.47;;
69419;SDS011;71621;52.030;113.516;2023-07-31T09:03:33;14.07;;;5.77;;
69419;SDS011;71621;52.030;113.516;2023-07-31T09:06:40;18.60;;;11.02;;
69419;SDS011;71621;52.030;113.516;2023-07-31T09:09:45;17.08;;;7.18;;
69419;SDS011;71621;52.030;113.516;2023-07-31T09:12:49;14.10;;;5.80;;
69419;SDS011;71621;52.030;113.516;2023-07-31T09:15:54;15.95;;;8.15;;
69419;SDS011;71621;52.030;113.516;2023-07-31T09:18:58;12.87;;;5.80;;
69419;SDS011;71621;52.030;113.516;2023-07-31T09:22:05;10.32;;;5.38;;
69419;SDS011;71621;52.030;113.516;2023-07-31T09:25:16;11.18;;;5.38;;
69419;SDS011;71621;52.030;113.516;2023-07-31T09:28:24;11.63;;;5.47;;
69419;SDS011;71621;52.030;113.516;2023-07-31T09:31:41;13.23;;;5.45;;
69419;SDS011;71621;52.030;113.516;2023-07-31T09:34:46;9.67;;;4.70;;
69419;SDS011;71621;52.030;113.516;2023-07-31T09:37:50;14.80;;;5.60;;
69419;SDS011;71621;52.030;113.516;2023-07-31T09:40:54;13.77;;;5.35;;
69419;SDS011;71621;52.030;113.516;2023-07-31T09:44:01;13.48;;;5.97;;
69419;SDS011;71621;52.030;113.516;2023-07-31T09:47:05;15.40;;;5.70;;
69419;SDS011;71621;52.030;113.516;2023-07-31T09:50:08;27.13;;;7.07;;
69419;SDS011;71621;52.030;113.516;2023-07-31T09:53:12;14.30;;;6.20;;
69419;SDS011;71621;52.030;113.516;2023-07-31T09:56:16;17.70;;;7.35;;
69419;SDS011;71621;52.030;113.516;2023-07-31T09:59:21;16.75;;;5.80;;
69419;SDS011;71621;52.030;113.516;2023-07-31T10:02:25;12.55;;;5.80;;
69419;SDS011;71621;52.030;113.516;2023-07-31T10:05:33;13.67;;;5.57;;
69419;SDS011;71621;52.030;113.516;2023-07-31T10:08:38;14.05;;;5.65;;
69419;SDS011;71621;52.030;113.516;2023-07-31T10:11:45;11.52;;;5.20;;
69419;SDS011;71621;52.030;113.516;2023-07-31T10:14:56;16.30;;;5.35;;
69419;SDS011;71621;52.030;113.516;2023-07-31T10:18:01;12.98;;;6.25;;
69419;SDS011;71621;52.030;113.516;2023-07-31T10:21:08;15.63;;;5.90;;
69419;SDS011;71621;52.030;113.516;2023-07-31T10:24:12;14.68;;;6.13;;
69419;SDS011;71621;52.030;113.516;2023-07-31T10:27:17;15.10;;;7.43;;
69419;SDS011;71621;52.030;113.516;2023-07-31T10:30:22;16.80;;;6.95;;
69419;SDS011;71621;52.030;113.516;2023-07-31T10:33:32;16.48;;;7.05;;
69419;SDS011;71621;52.030;113.516;2023-07-31T10:36:36;11.97;;;5.97;;
69419;SDS011;71621;52.030;113.516;2023-07-31T10:39:40;15.18;;;7.47;;
69419;SDS011;71621;52.030;113.516;2023-07-31T10:42:48;12.85;;;6.95;;
69419;SDS011;71621;52.030;113.516;2023-07-31T10:45:53;14.32;;;7.50;;
69419;SDS011;71621;52.030;113.516;2023-07-31T10:48:58;14.50;;;7.30;;
69419;SDS011;71621;52.030;113.516;2023-07-31T10:52:03;14.03;;;7.47;;
69419;SDS011;71621;52.030;113.516;2023-07-31T10:55:23;17.13;;;7.40;;
69419;SDS011;71621;52.030;113.516;2023-07-31T10:58:31;11.90;;;7.25;;
69419;SDS011;71621;52.030;113.516;2023-07-31T11:01:54;12.45;;;6.82;;
69419;SDS011;71621;52.030;113.516;2023-07-31T11:05:05;13.75;;;6.50;;
69419;SDS011;71621;52.030;113.516;2023-07-31T11:08:32;12.53;;;8.23;;
69419;SDS011;71621;52.030;113.516;2023-07-31T11:11:35;19.85;;;8.88;;
69419;SDS011;71621;52.030;113.516;2023-07-31T11:14:39;16.55;;;8.85;;
69419;SDS011;71621;52.030;113.516;2023-07-31T11:17:42;18.27;;;7.50;;
69419;SDS011;71621;52.030;113.516;2023-07-31T11:20:46;11.88;;;7.13;;
69419;SDS011;71621;52.030;113.516;2023-07-31T11:23:51;13.07;;;7.53;;
69419;SDS011;71621;52.030;113.516;2023-07-31T11:26:56;17.40;;;8.63;;
69419;SDS011;71621;52.030;113.516;2023-07-31T11:30:00;14.00;;;7.43;;
69419;SDS011;71621;52.030;113.516;2023-07-31T11:33:05;12.23;;;7.18;;
69419;SDS011;71621;52.030;113.516;2023-07-31T11:36:16;19.33;;;7.60;;
69419;SDS011;71621;52.030;113.516;2023-07-31T11:39:21;16.50;;;6.67;;
69419;SDS011;71621;52.030;113.516;2023-07-31T11:42:25;13.05;;;6.72;;
69419;SDS011;71621;52.030;113.516;2023-07-31T11:45:28;16.00;;;7.55;;
69419;SDS011;71621;52.030;113.516;2023-07-31T11:48:34;18.63;;;9.40;;
69419;SDS011;71621;52.030;113.516;2023-07-31T11:51:39;24.23;;;8.73;;
69419;SDS011;71621;52.030;113.516;2023-07-31T11:54:43;15.07;;;7.33;;
69419;SDS011;71621;52.030;113.516;2023-07-31T11:57:47;18.40;;;8.38;;
69419;SDS011;71621;52.030;113.516;2023-07-31T12:00:51;26.20;;;13.50;;
69419;SDS011;71621;52.030;113.516;2023-07-31T12:03:55;24.80;;;12.45;;
69419;SDS011;71621;52.030;113.516;2023-07-31T12:07:00;22.75;;;8.27;;
69419;SDS011;71621;52.030;113.516;2023-07-31T12:10:04;17.20;;;8.60;;
69419;SDS011;71621;52.030;113.516;2023-07-31T12:13:08;20.08;;;8.45;;
69419;SDS011;71621;52.030;113.516;2023-07-31T12:16:15;18.00;;;7.32;;
69419;SDS011;71621;52.030;113.516;2023-07-31T12:19:19;16.13;;;7.28;;
69419;SDS011;71621;52.030;113.516;2023-07-31T12:22:22;18.70;;;8.88;;
69419;SDS011;71621;52.030;113.516;2023-07-31T12:25:30;21.27;;;13.97;;
69419;SDS011;71621;52.030;113.516;2023-07-31T12:28:39;66.13;;;42.53;;
69419;SDS011;71621;52.030;113.516;2023-07-31T12:31:43;81.05;;;53.45;;
69419;SDS011;71621;52.030;113.516;2023-07-31T12:34:47;34.83;;;20.67;;
69419;SDS011;71621;52.030;113.516;2023-07-31T12:37:51;18.65;;;10.55;;
69419;SDS011;71621;52.030;113.516;2023-07-31T12:40:55;18.17;;;8.83;;
69419;SDS011;71621;52.030;113.516;2023-07-31T12:43:58;18.17;;;7.72;;
69419;SDS011;71621;52.030;113.516;2023-07-31T12:47:02;21.73;;;10.38;;
69419;SDS011;71621;52.030;113.516;2023-07-31T12:50:07;16.27;;;7.90;;
69419;SDS011;71621;52.030;113.516;2023-07-31T12:53:11;18.23;;;6.93;;
69419;SDS011;71621;52.030;113.516;2023-07-31T12:56:14;22.40;;;8.63;;
69419;SDS011;71621;52.030;113.516;2023-07-31T12:59:18;13.93;;;6.50;;
69419;SDS011;71621;52.030;113.516;2023-07-31T13:02:21;13.98;;;7.00;;
69419;SDS011;71621;52.030;113.516;2023-07-31T13:05:28;14.55;;;7.20;;
69419;SDS011;71621;52.030;113.516;2023-07-31T13:08:31;16.60;;;6.68;;
69419;SDS011;71621;52.030;113.516;2023-07-31T13:11:35;21.87;;;11.83;;
69419;SDS011;71621;52.030;113.516;2023-07-31T13:14:38;24.38;;;11.35;;
69419;SDS011;71621;52.030;113.516;2023-07-31T13:17:43;19.23;;;8.65;;
69419;SDS011;71621;52.030;113.516;2023-07-31T13:20:46;17.42;;;8.35;;
69419;SDS011;71621;52.030;113.516;2023-07-31T13:23:50;19.40;;;6.85;;
69419;SDS011;71621;52.030;113.516;2023-07-31T13:26:53;16.07;;;6.90;;
69419;SDS011;71621;52.030;113.516;2023-07-31T13:29:58;13.30;;;7.57;;
69419;SDS011;71621;52.030;113.516;2023-07-31T13:33:01;19.63;;;8.02;;
69419;SDS011;71621;52.030;113.516;2023-07-31T13:36:05;21.83;;;7.97;;
69419;SDS011;71621;52.030;113.516;2023-07-31T13:39:09;18.85;;;8.23;;
69419;SDS011;71621;52.030;113.516;2023-07-31T13:42:13;26.80;;;8.70;;
69419;SDS011;71621;52.030;113.516;2023-07-31T13:45:16;30.48;;;8.70;;
69419;SDS011;71621;52.030;113.516;2023-07-31T13:48:20;21.08;;;9.32;;
69419;SDS011;71621;52.030;113.516;2023-07-31T13:51:23;16.83;;;8.52;;
69419;SDS011;71621;52.030;113.516;2023-07-31T13:54:27;15.82;;;7.97;;
69419;SDS011;71621;52.030;113.516;2023-07-31T13:57:32;16.97;;;7.37;;
69419;SDS011;71621;52.030;113.516;2023-07-31T14:00:36;27.13;;;10.50;;
69419;SDS011;71621;52.030;113.516;2023-07-31T14:03:40;19.00;;;8.60;;
69419;SDS011;71621;52.030;113.516;2023-07-31T14:06:47;23.17;;;9.13;;
69419;SDS011;71621;52.030;113.516;2023-07-31T14:09:53;22.25;;;8.52;;
69419;SDS011;71621;52.030;113.516;2023-07-31T14:12:58;16.10;;;8.10;;
69419;SDS011;71621;52.030;113.516;2023-07-31T14:16:01;15.95;;;8.40;;
69419;SDS011;71621;52.030;113.516;2023-07-31T14:19:05;19.33;;;8.20;;
69419;SDS011;71621;52.030;113.516;2023-07-31T14:22:11;12.98;;;7.80;;
69419;SDS011;71621;52.030;113.516;2023-07-31T14:25:14;12.50;;;6.50;;
69419;SDS011;71621;52.030;113.516;2023-07-31T14:28:18;17.27;;;6.43;;
69419;SDS011;71621;52.030;113.516;2023-07-31T14:31:22;15.73;;;7.10;;
69419;SDS011;71621;52.030;113.516;2023-07-31T14:34:25;18.20;;;6.70;;
69419;SDS011;71621;52.030;113.516;2023-07-31T14:37:42;17.27;;;7.07;;
69419;SDS011;71621;52.030;113.516;2023-07-31T14:40:46;19.00;;;7.78;;
69419;SDS011;71621;52.030;113.516;2023-07-31T14:43:50;17.00;;;6.83;;
69419;SDS011;71621;52.030;113.516;2023-07-31T14:46:54;14.60;;;6.88;;
69419;SDS011;71621;52.030;113.516;2023-07-31T14:49:58;16.30;;;8.00;;
69419;SDS011;71621;52.030;113.516;2023-07-31T14:53:01;12.55;;;7.32;;
69419;SDS011;71621;52.030;113.516;2023-07-31T14:56:05;18.15;;;7.63;;
69419;SDS011;71621;52.030;113.516;2023-07-31T14:59:08;16.20;;;7.07;;
69419;SDS011;71621;52.030;113.516;2023-07-31T15:02:12;22.48;;;7.22;;
69419;SDS011;71621;52.030;113.516;2023-07-31T15:05:17;13.98;;;7.60;;
69419;SDS011;71621;52.030;113.516;2023-07-31T15:08:21;17.48;;;7.55;;
69419;SDS011;71621;52.030;113.516;2023-07-31T15:11:24;15.88;;;7.65;;
69419;SDS011;71621;52.030;113.516;2023-07-31T15:14:28;14.40;;;6.87;;
69419;SDS011;71621;52.030;113.516;2023-07-31T15:17:33;16.42;;;7.30;;
69419;SDS011;71621;52.030;113.516;2023-07-31T15:20:37;17.15;;;7.05;;
69419;SDS011;71621;52.030;113.516;2023-07-31T15:23:40;13.65;;;6.63;;
69419;SDS011;71621;52.030;113.516;2023-07-31T15:26:44;13.73;;;6.45;;
69419;SDS011;71621;52.030;113.516;2023-07-31T15:29:49;16.63;;;5.93;;
69419;SDS011;71621;52.030;113.516;2023-07-31T15:32:56;12.15;;;6.30;;
69419;SDS011;71621;52.030;113.516;2023-07-31T15:35:59;15.23;;;6.40;;
69419;SDS011;71621;52.030;113.516;2023-07-31T15:39:03;14.52;;;6.80;;
69419;SDS011;71621;52.030;113.516;2023-07-31T15:42:07;15.27;;;8.00;;
69419;SDS011;71621;52.030;113.516;2023-07-31T15:45:11;15.10;;;7.70;;
69419;SDS011;71621;52.030;113.516;2023-07-31T15:48:15;15.10;;;8.80;;
69419;SDS011;71621;52.030;113.516;2023-07-31T15:51:18;15.98;;;8.88;;
69419;SDS011;71621;52.030;113.516;2023-07-31T15:54:22;16.95;;;9.15;;
69419;SDS011;71621;52.030;113.516;2023-07-31T15:57:26;16.40;;;8.80;;
69419;SDS011;71621;52.030;113.516;2023-07-31T16:00:32;18.53;;;8.93;;
69419;SDS011;71621;52.030;113.516;2023-07-31T16:03:36;17.70;;;8.95;;
69419;SDS011;71621;52.030;113.516;2023-07-31T16:06:39;18.63;;;9.43;;
69419;SDS011;71621;52.030;113.516;2023-07-31T16:09:44;18.67;;;9.30;;
69419;SDS011;71621;52.030;113.516;2023-07-31T16:12:47;20.58;;;9.32;;
69419;SDS011;71621;52.030;113.516;2023-07-31T16:15:51;19.67;;;7.53;;
69419;SDS011;71621;52.030;113.516;2023-07-31T16:18:55;14.68;;;8.75;;
69419;SDS011;71621;52.030;113.516;2023-07-31T16:21:58;17.95;;;8.60;;
69419;SDS011;71621;52.030;113.516;2023-07-31T16:25:02;19.90;;;8.05;;
69419;SDS011;71621;52.030;113.516;2023-07-31T16:28:06;21.15;;;8.13;;
69419;SDS011;71621;52.030;113.516;2023-07-31T16:31:10;16.97;;;8.70;;
69419;SDS011;71621;52.030;113.516;2023-07-31T16:34:14;15.65;;;8.63;;
69419;SDS011;71621;52.030;113.516;2023-07-31T16:37:17;14.60;;;8.23;;
69419;SDS011;71621;52.030;113.516;2023-07-31T16:40:21;13.27;;;8.00;;
69419;SDS011;71621;52.030;113.516;2023-07-31T16:43:24;15.25;;;8.57;;
69419;SDS011;71621;52.030;113.516;2023-07-31T16:46:31;16.97;;;7.63;;
69419;SDS011;71621;52.030;113.516;2023-07-31T16:49:34;16.05;;;7.82;;
69419;SDS011;71621;52.030;113.516;2023-07-31T16:52:38;14.40;;;7.82;;
69419;SDS011;71621;52.030;113.516;2023-07-31T16:55:41;13.55;;;7.50;;
69419;SDS011;71621;52.030;113.516;2023-07-31T16:58:45;14.73;;;8.20;;
69419;SDS011;71621;52.030;113.516;2023-07-31T17:01:48;17.80;;;8.13;;
69419;SDS011;71621;52.030;113.516;2023-07-31T17:04:52;15.70;;;8.10;;
69419;SDS011;71621;52.030;113.516;2023-07-31T17:07:56;12.80;;;7.60;;
69419;SDS011;71621;52.030;113.516;2023-07-31T17:10:59;12.35;;;6.82;;
69419;SDS011;71621;52.030;113.516;2023-07-31T17:14:03;13.15;;;7.32;;
69419;SDS011;71621;52.030;113.516;2023-07-31T17:17:09;17.17;;;7.80;;
69419;SDS011;71621;52.030;113.516;2023-07-31T17:20:12;16.10;;;7.32;;
69419;SDS011;71621;52.030;113.516;2023-07-31T17:23:19;12.88;;;7.15;;
69419;SDS011;71621;52.030;113.516;2023-07-31T17:26:23;17.25;;;7.90;;
69419;SDS011;71621;52.030;113.516;2023-07-31T17:29:27;16.17;;;7.43;;
69419;SDS011;71621;52.030;113.516;2023-07-31T17:32:32;15.27;;;7.13;;
69419;SDS011;71621;52.030;113.516;2023-07-31T17:35:35;14.48;;;6.70;;
69419;SDS011;71621;52.030;113.516;2023-07-31T17:38:39;14.80;;;7.57;;
69419;SDS011;71621;52.030;113.516;2023-07-31T17:41:43;13.25;;;7.03;;
69419;SDS011;71621;52.030;113.516;2023-07-31T17:44:46;13.02;;;7.00;;
69419;SDS011;71621;52.030;113.516;2023-07-31T17:47:50;13.00;;;6.77;;
69419;SDS011;71621;52.030;113.516;2023-07-31T17:50:56;15.95;;;7.07;;
69419;SDS011;71621;52.030;113.516;2023-07-31T17:54:00;12.73;;;6.35;;